ウルムチ の空港の天気 - METARとTAF

ウルムチ地窩堡国際空港 ( ZWWW / URC ) - 中国 新疆ウイグル自治区ウルムチ市
飛行場実況気象(Metar)
観測時間01/22 01:30 CST (01/21 17:30 UTC)
風向・風速静穏 0m/s
視程4000m
天気現象もや
全天の4割程度の雲 雲底高度 460m
気温-19℃
湿度84%
気圧1027hPa
METARZWWW 211730Z 00000MPS 4000 BR SCT015 M19/M21 Q1027 NOSIG
過去の天気等 Google飛行場航空写真 Wunderground天気予報

過去48時間のMETAR

飛行場予報(TAF)
発表時間: 1/21 23:06 CST (1/21 15:06 UTC)
予報対象時間: 22日2時 CST ~ 23日2時 CST
風向・風速北 2m/s
視程2,000m
天気現象もや
なし
22日4時 CST ~ 22日5時 CST に徐々に
視程1,100m
天気現象もや
22日15時 CST ~ 22日16時 CST に徐々に
視程1,600m
天気現象もや
22日21時 CST ~ 22日22時 CST に徐々に
風向・風速南 2m/s
TAF ZWWW 211506Z 2118/2218 36002MPS 2000 BR NSC TXM14/08Z TNM20/23Z
BECMG 2120/2121 1100 BR
BECMG 2207/2208 1600 BR
BECMG 2213/2214 18002MPS